Time;durP1;ratioP1;P1;durP2;ratioP2;P2;SDS_P1;SDS_P2;PMS_P1;PMS_P2;Temp;Humidity;BMP_temperature;BMP_pressure;BME280_temperature;BME280_humidity;BME280_pressure;Samples;Min_cycle;Max_cycle;Signal;HPM_P1;HPM_P2
2021/10/24 00:01:20;;;;;;;15.18;8.77;;;3.60;99.90;;;;;;4929998;28;20400;-82
2021/10/24 00:03:46;;;;;;;13.85;8.23;;;3.70;99.90;;;;;;4907264;28;20064;-82
2021/10/24 00:06:12;;;;;;;16.95;8.77;;;3.70;99.90;;;;;;4914262;29;20555;-82
2021/10/24 00:08:37;;;;;;;18.30;8.82;;;3.60;99.90;;;;;;4933021;28;20042;-83
2021/10/24 00:11:03;;;;;;;16.40;8.77;;;3.50;99.90;;;;;;4918837;28;20062;-82
2021/10/24 00:13:29;;;;;;;21.20;8.88;;;3.50;99.90;;;;;;4922456;28;20070;-82
2021/10/24 00:15:56;;;;;;;15.10;8.82;;;3.50;99.90;;;;;;4922570;28;20058;-83
2021/10/24 00:18:21;;;;;;;18.05;9.52;;;3.40;99.90;;;;;;4900823;29;20043;-82
2021/10/24 00:20:47;;;;;;;22.10;9.23;;;3.40;99.90;;;;;;4919250;28;20031;-83
2021/10/24 00:23:14;;;;;;;13.18;8.57;;;3.50;99.90;;;;;;4921264;28;20138;-83
2021/10/24 00:25:40;;;;;;;20.02;9.77;;;3.40;99.90;;;;;;4935896;28;20480;-82
2021/10/24 00:28:06;;;;;;;20.13;9.63;;;3.50;99.90;;;;;;4908614;29;20137;-84
2021/10/24 00:30:31;;;;;;;18.20;9.32;;;3.40;99.90;;;;;;4935438;28;20471;-83
2021/10/24 00:32:57;;;;;;;19.10;8.77;;;3.40;99.90;;;;;;4919835;28;20039;-83
2021/10/24 00:35:23;;;;;;;17.50;8.55;;;3.40;99.90;;;;;;4916661;28;20103;-83
2021/10/24 00:37:48;;;;;;;15.00;8.57;;;3.40;99.90;;;;;;4935986;28;20038;-83
2021/10/24 00:40:14;;;;;;;14.77;8.23;;;3.30;99.90;;;;;;4923016;29;20055;-83
2021/10/24 00:42:47;;;;;;;15.52;8.95;;;3.40;99.90;;;;;;4936073;29;20062;-83
2021/10/24 00:45:12;;;;;;;15.85;8.13;;;3.40;99.90;;;;;;4937550;28;20054;-83
2021/10/24 00:47:38;;;;;;;12.23;8.48;;;3.60;99.90;;;;;;4924729;28;20035;-83
2021/10/24 00:50:04;;;;;;;17.15;8.45;;;3.50;99.90;;;;;;4905903;28;20039;-82
2021/10/24 00:52:29;;;;;;;13.93;8.20;;;3.40;99.90;;;;;;4903534;28;20062;-82
2021/10/24 00:54:55;;;;;;;15.35;7.78;;;3.60;99.90;;;;;;4915130;28;20518;-82
2021/10/24 00:57:20;;;;;;;12.32;7.57;;;3.60;99.90;;;;;;4921662;28;20073;-82
2021/10/24 00:59:46;;;;;;;17.88;9.73;;;3.40;99.90;;;;;;4921229;28;20077;-82
2021/10/24 01:02:12;;;;;;;16.90;9.15;;;3.50;99.90;;;;;;4922576;28;20027;-82
2021/10/24 01:04:38;;;;;;;14.75;7.90;;;3.40;99.90;;;;;;4938995;28;20051;-82
2021/10/24 01:07:04;;;;;;;15.15;8.88;;;3.40;99.90;;;;;;4932309;28;20023;-83
2021/10/24 01:09:31;;;;;;;14.13;8.38;;;3.40;99.90;;;;;;4901145;28;20082;-82
2021/10/24 01:11:56;;;;;;;12.10;7.35;;;3.40;99.90;;;;;;4917289;28;20049;-83
2021/10/24 01:14:22;;;;;;;12.43;6.82;;;3.50;99.90;;;;;;4901741;29;20028;-82
2021/10/24 01:16:49;;;;;;;12.55;7.22;;;3.60;99.90;;;;;;4932919;28;20081;-83
2021/10/24 01:19:15;;;;;;;22.17;9.52;;;3.70;99.90;;;;;;4916605;28;20436;-82
2021/10/24 01:21:40;;;;;;;16.40;9.73;;;3.70;99.90;;;;;;4939363;28;20031;-82
2021/10/24 01:24:06;;;;;;;16.98;8.88;;;3.70;99.90;;;;;;4917458;29;20114;-83
2021/10/24 01:26:34;;;;;;;13.32;7.38;;;3.60;99.90;;;;;;4940226;28;20027;-82
2021/10/24 01:29:00;;;;;;;13.02;7.93;;;3.60;99.90;;;;;;4918006;28;20052;-82
2021/10/24 01:31:25;;;;;;;15.57;8.23;;;3.50;99.90;;;;;;4907836;28;20505;-82
2021/10/24 01:33:51;;;;;;;14.60;7.57;;;3.50;99.90;;;;;;4909575;28;20189;-82
2021/10/24 01:36:16;;;;;;;17.23;7.88;;;3.50;99.90;;;;;;4905182;28;20086;-83
2021/10/24 01:38:46;;;;;;;15.18;8.18;;;3.50;99.90;;;;;;4927193;28;20038;-83
2021/10/24 01:41:11;;;;;;;12.75;7.57;;;3.40;99.90;;;;;;4902131;28;20463;-83
2021/10/24 01:43:37;;;;;;;16.52;7.70;;;3.30;99.90;;;;;;4941118;28;20087;-82
2021/10/24 01:46:03;;;;;;;14.38;7.32;;;3.40;99.90;;;;;;4916748;28;20086;-83
2021/10/24 01:48:28;;;;;;;14.00;6.43;;;3.50;99.90;;;;;;4904234;28;20046;-82
2021/10/24 01:50:54;;;;;;;11.95;7.10;;;3.50;99.90;;;;;;4903420;28;20054;-83
2021/10/24 01:53:22;;;;;;;14.75;7.88;;;3.30;99.90;;;;;;4909037;28;20039;-82
2021/10/24 01:55:47;;;;;;;15.05;8.13;;;3.30;99.90;;;;;;4918100;28;20081;-82
2021/10/24 01:58:13;;;;;;;18.60;9.75;;;3.20;99.90;;;;;;4929728;28;20039;-82
2021/10/24 02:00:40;;;;;;;26.52;11.52;;;3.20;99.90;;;;;;4917548;29;20114;-82
2021/10/24 02:03:05;;;;;;;15.95;9.07;;;3.20;99.90;;;;;;4904614;28;20401;-83
2021/10/24 02:05:31;;;;;;;20.85;9.93;;;3.10;99.90;;;;;;4939240;28;20030;-82
2021/10/24 02:07:56;;;;;;;24.38;10.02;;;3.10;99.90;;;;;;4939805;29;20046;-82
2021/10/24 02:10:22;;;;;;;23.58;12.07;;;3.10;99.90;;;;;;4903068;28;20452;-83
2021/10/24 02:12:47;;;;;;;16.48;9.23;;;3.10;99.90;;;;;;4909717;28;20066;-83
2021/10/24 02:15:13;;;;;;;15.50;8.52;;;3.10;99.90;;;;;;4903572;28;20039;-83
2021/10/24 02:17:39;;;;;;;14.70;7.72;;;3.10;99.90;;;;;;4924449;28;20086;-83
2021/10/24 02:20:05;;;;;;;17.02;7.45;;;3.10;99.90;;;;;;4911934;28;20588;-82
2021/10/24 02:22:31;;;;;;;16.83;7.55;;;3.10;99.90;;;;;;4926327;28;20601;-82
2021/10/24 02:24:56;;;;;;;13.55;6.97;;;3.10;99.90;;;;;;4924313;28;20042;-83
2021/10/24 02:27:22;;;;;;;12.48;6.38;;;3.40;99.90;;;;;;4905257;28;20488;-82
2021/10/24 02:29:47;;;;;;;15.70;7.45;;;3.60;99.90;;;;;;4927889;28;20479;-83
2021/10/24 02:32:13;;;;;;;10.52;5.45;;;3.60;99.90;;;;;;4920279;28;20524;-82
2021/10/24 02:34:39;;;;;;;13.23;5.75;;;3.70;99.90;;;;;;4926762;28;20028;-82
2021/10/24 02:37:05;;;;;;;10.77;6.32;;;3.80;99.90;;;;;;4903655;28;20050;-82
2021/10/24 02:39:30;;;;;;;9.07;5.60;;;3.80;99.90;;;;;;4897875;29;20043;-83
2021/10/24 02:41:56;;;;;;;11.68;6.57;;;3.60;99.90;;;;;;4904794;29;20031;-82
2021/10/24 02:44:22;;;;;;;12.32;6.45;;;3.60;99.90;;;;;;4905352;28;20440;-82
2021/10/24 02:46:49;;;;;;;11.70;6.03;;;3.50;99.90;;;;;;4930015;28;20661;-82
2021/10/24 02:49:14;;;;;;;15.30;5.85;;;3.50;99.90;;;;;;4924444;28;20041;-82
2021/10/24 02:51:40;;;;;;;8.52;5.57;;;3.60;99.90;;;;;;4934268;28;20035;-83
2021/10/24 02:54:06;;;;;;;11.88;6.35;;;3.60;99.90;;;;;;4911465;29;20266;-83
2021/10/24 02:56:31;;;;;;;19.50;6.93;;;3.70;99.90;;;;;;4937406;28;20073;-83
2021/10/24 02:58:57;;;;;;;9.93;5.45;;;3.80;99.90;;;;;;4919024;28;20043;-83
2021/10/24 03:01:22;;;;;;;13.48;5.75;;;3.80;99.90;;;;;;4903567;29;20027;-82
2021/10/24 03:03:48;;;;;;;11.68;7.03;;;3.90;99.90;;;;;;4940245;28;20027;-83
2021/10/24 03:06:14;;;;;;;13.93;6.35;;;3.80;99.90;;;;;;4921126;28;20082;-82
2021/10/24 03:08:39;;;;;;;10.02;6.22;;;3.70;99.90;;;;;;4906024;29;20040;-83
2021/10/24 03:11:04;;;;;;;14.38;6.20;;;3.70;99.90;;;;;;4904987;28;20106;-82
2021/10/24 03:13:30;;;;;;;13.13;5.22;;;3.60;99.90;;;;;;4900823;29;20688;-83
2021/10/24 03:15:56;;;;;;;8.82;4.75;;;3.70;99.90;;;;;;4918574;28;20093;-83
2021/10/24 03:18:21;;;;;;;10.13;5.57;;;3.70;99.90;;;;;;4907585;28;20030;-83
2021/10/24 03:20:47;;;;;;;8.05;5.28;;;3.80;99.90;;;;;;4908610;28;20031;-83
2021/10/24 03:23:13;;;;;;;9.60;5.10;;;3.70;99.90;;;;;;4903351;29;20178;-83
2021/10/24 03:25:38;;;;;;;8.68;4.97;;;3.70;99.90;;;;;;4930964;28;20035;-83
2021/10/24 03:28:04;;;;;;;10.98;5.60;;;3.80;99.90;;;;;;4903932;28;20102;-83
2021/10/24 03:30:29;;;;;;;9.55;5.55;;;3.80;99.90;;;;;;4916340;28;20115;-83
2021/10/24 03:32:55;;;;;;;12.70;5.63;;;3.90;99.90;;;;;;4919435;29;20054;-83
2021/10/24 03:35:20;;;;;;;7.90;4.85;;;3.90;99.90;;;;;;4905267;28;20027;-83
2021/10/24 03:37:46;;;;;;;16.38;6.32;;;3.90;99.90;;;;;;4925369;28;20050;-83
2021/10/24 03:40:11;;;;;;;7.85;5.28;;;3.80;99.90;;;;;;4923024;28;20050;-83
2021/10/24 03:42:37;;;;;;;9.77;5.45;;;3.80;99.90;;;;;;4939040;29;20032;-83
2021/10/24 03:45:04;;;;;;;13.15;7.38;;;3.90;99.90;;;;;;4923617;28;20370;-83
2021/10/24 03:47:29;;;;;;;11.95;6.18;;;3.90;99.90;;;;;;4922753;28;20061;-83
2021/10/24 03:49:55;;;;;;;13.55;6.82;;;3.90;99.90;;;;;;4920398;28;20072;-83
2021/10/24 03:52:20;;;;;;;8.60;4.45;;;3.90;99.90;;;;;;4904386;28;20026;-83
2021/10/24 03:54:46;;;;;;;8.25;5.82;;;3.90;99.90;;;;;;4934227;29;20803;-84
2021/10/24 03:57:11;;;;;;;11.27;6.15;;;4.00;99.90;;;;;;4926636;28;20392;-83
2021/10/24 03:59:37;;;;;;;9.57;6.07;;;3.90;99.90;;;;;;4926243;28;20081;-83
2021/10/24 04:02:03;;;;;;;13.75;5.68;;;3.90;99.90;;;;;;4921876;28;20043;-83
2021/10/24 04:04:29;;;;;;;13.73;6.78;;;4.00;99.90;;;;;;4933460;28;20028;-83
2021/10/24 04:06:54;;;;;;;10.02;5.38;;;3.90;99.90;;;;;;4921132;28;20031;-84
2021/10/24 04:09:20;;;;;;;12.48;5.80;;;3.90;99.90;;;;;;4923414;29;20031;-83
2021/10/24 04:11:45;;;;;;;9.00;5.60;;;3.80;99.90;;;;;;4940492;28;20088;-83
2021/10/24 04:14:11;;;;;;;9.65;4.97;;;3.90;99.90;;;;;;4906852;28;20117;-83
2021/10/24 04:16:37;;;;;;;8.35;5.03;;;4.00;99.90;;;;;;4907164;29;20043;-83
2021/10/24 04:19:02;;;;;;;11.90;5.78;;;4.00;99.90;;;;;;4923242;28;20170;-83
2021/10/24 04:21:28;;;;;;;11.85;6.18;;;4.00;99.90;;;;;;4922289;29;20031;-83
2021/10/24 04:23:53;;;;;;;9.65;5.40;;;3.90;99.90;;;;;;4931128;29;20031;-83
2021/10/24 04:26:19;;;;;;;9.60;5.57;;;4.00;99.90;;;;;;4905138;28;20495;-84
2021/10/24 04:28:44;;;;;;;10.48;5.45;;;3.90;99.90;;;;;;4924129;28;20523;-83
2021/10/24 04:31:10;;;;;;;11.00;5.03;;;4.00;99.90;;;;;;4921631;28;20045;-83
2021/10/24 04:33:35;;;;;;;12.68;6.20;;;4.00;99.90;;;;;;4915888;28;20119;-83
2021/10/24 04:36:01;;;;;;;11.88;5.70;;;3.90;99.90;;;;;;4918448;28;20045;-83
2021/10/24 04:38:29;;;;;;;16.50;6.57;;;3.90;99.90;;;;;;4901542;28;20024;-83
2021/10/24 04:40:54;;;;;;;10.63;5.72;;;3.90;99.90;;;;;;4936345;29;20046;-83
2021/10/24 04:43:20;;;;;;;12.38;7.07;;;3.80;99.90;;;;;;4905225;28;20052;-83
2021/10/24 04:45:45;;;;;;;11.20;7.10;;;3.80;99.90;;;;;;4932023;28;20031;-83
2021/10/24 04:48:11;;;;;;;12.98;6.57;;;3.80;99.90;;;;;;4900261;29;20518;-83
2021/10/24 04:50:37;;;;;;;9.50;6.45;;;3.80;99.90;;;;;;4935174;28;20035;-83
2021/10/24 04:53:06;;;;;;;14.00;6.30;;;3.70;99.90;;;;;;4904145;29;20031;-83
2021/10/24 04:55:32;;;;;;;10.38;5.40;;;3.70;99.90;;;;;;4900635;28;20035;-83
2021/10/24 04:57:57;;;;;;;12.10;5.97;;;3.80;99.90;;;;;;4920441;28;20049;-83
2021/10/24 05:00:23;;;;;;;11.65;7.20;;;3.90;99.90;;;;;;4904850;28;20043;-83
2021/10/24 05:02:48;;;;;;;9.82;5.75;;;3.80;99.90;;;;;;4921645;28;20047;-83
2021/10/24 05:05:14;;;;;;;8.23;5.32;;;3.80;99.90;;;;;;4924902;28;20027;-83
2021/10/24 05:07:40;;;;;;;12.15;6.20;;;3.80;99.90;;;;;;4926141;28;20058;-83
2021/10/24 05:10:05;;;;;;;14.52;6.03;;;3.80;99.90;;;;;;4935493;28;20042;-83
2021/10/24 05:12:31;;;;;;;9.00;5.70;;;3.90;99.90;;;;;;4897497;29;20087;-82
2021/10/24 05:14:57;;;;;;;16.05;6.45;;;3.80;99.90;;;;;;4905877;28;20114;-83
2021/10/24 05:17:22;;;;;;;9.70;6.13;;;3.70;99.90;;;;;;4905070;28;20448;-82
2021/10/24 05:19:48;;;;;;;14.32;6.80;;;3.50;99.90;;;;;;4924043;29;20480;-83
2021/10/24 05:22:13;;;;;;;18.02;7.38;;;3.40;99.90;;;;;;4911358;28;20122;-83
2021/10/24 05:24:39;;;;;;;15.52;7.32;;;3.30;99.90;;;;;;4934675;28;20110;-83
2021/10/24 05:27:04;;;;;;;18.40;8.13;;;3.40;99.90;;;;;;4906431;28;20028;-83
2021/10/24 05:29:30;;;;;;;17.27;7.53;;;3.30;99.90;;;;;;4904029;28;20045;-83
2021/10/24 05:31:56;;;;;;;14.93;7.47;;;3.20;99.90;;;;;;4939518;28;20031;-83
2021/10/24 05:34:22;;;;;;;27.50;8.23;;;3.10;99.90;;;;;;4907992;28;20034;-83
2021/10/24 05:36:48;;;;;;;18.75;8.02;;;3.00;99.90;;;;;;4920938;28;20027;-84
2021/10/24 05:39:13;;;;;;;14.98;7.78;;;3.00;99.90;;;;;;4905694;28;20491;-85
2021/10/24 05:41:39;;;;;;;17.27;7.93;;;2.90;99.90;;;;;;4909530;28;20058;-84
2021/10/24 05:44:04;;;;;;;12.82;7.03;;;2.90;99.90;;;;;;4917180;28;20086;-83
2021/10/24 05:46:44;;;;;;;13.05;7.43;;;2.90;99.90;;;;;;4883881;28;20502;-85
2021/10/24 05:49:12;;;;;;;17.70;8.90;;;2.80;99.90;;;;;;4897479;28;20565;-84
2021/10/24 05:51:45;;;;;;;12.48;7.70;;;2.80;99.90;;;;;;4892328;29;20031;-84
2021/10/24 05:54:11;;;;;;;20.88;7.85;;;2.80;99.90;;;;;;4896810;28;20043;-84
2021/10/24 05:56:42;;;;;;;15.90;8.23;;;2.80;99.90;;;;;;4898051;29;20527;-85
2021/10/24 05:59:08;;;;;;;10.38;6.70;;;2.80;99.90;;;;;;4891589;28;21421;-85
2021/10/24 06:01:33;;;;;;;17.58;7.97;;;2.80;99.90;;;;;;4932591;28;20038;-85
2021/10/24 06:03:59;;;;;;;14.98;8.23;;;2.70;99.90;;;;;;4898879;29;20043;-85
2021/10/24 06:06:25;;;;;;;16.67;7.70;;;2.70;99.90;;;;;;4890093;28;20031;-85
2021/10/24 06:08:51;;;;;;;15.27;7.95;;;2.60;99.90;;;;;;4919832;28;20411;-86
2021/10/24 06:11:25;;;;;;;18.80;7.68;;;2.60;99.90;;;;;;4900623;28;20502;-85
2021/10/24 06:13:51;;;;;;;20.80;8.77;;;2.70;99.90;;;;;;4923009;29;20055;-84
2021/10/24 06:16:16;;;;;;;20.27;8.40;;;2.60;99.90;;;;;;4901277;29;20070;-85
2021/10/24 06:18:42;;;;;;;13.40;7.88;;;2.60;99.90;;;;;;4918104;28;20038;-85
2021/10/24 06:21:08;;;;;;;19.30;7.70;;;2.60;99.90;;;;;;4903724;28;20035;-85
2021/10/24 06:23:33;;;;;;;14.20;7.32;;;2.50;99.90;;;;;;4916725;29;20596;-85
2021/10/24 06:26:00;;;;;;;16.65;7.82;;;2.50;99.90;;;;;;4895729;29;20039;-84
2021/10/24 06:28:26;;;;;;;16.42;7.25;;;2.50;99.90;;;;;;4899249;29;20043;-83
2021/10/24 06:30:52;;;;;;;11.32;7.60;;;2.50;99.90;;;;;;4931219;28;20507;-83
2021/10/24 06:33:17;;;;;;;15.98;7.95;;;2.50;99.90;;;;;;4899587;29;20034;-84
2021/10/24 06:35:45;;;;;;;18.35;8.52;;;2.50;99.90;;;;;;4931001;28;20031;-84
2021/10/24 06:38:13;;;;;;;18.45;9.93;;;2.50;99.90;;;;;;4923975;28;20361;-84
2021/10/24 06:40:38;;;;;;;13.02;8.50;;;2.50;99.90;;;;;;4922859;28;20095;-83
2021/10/24 06:43:04;;;;;;;14.40;8.10;;;2.50;99.90;;;;;;4934911;28;20051;-83
2021/10/24 06:45:31;;;;;;;17.27;7.72;;;2.60;99.90;;;;;;4913075;28;20118;-83
2021/10/24 06:47:56;;;;;;;14.35;8.10;;;2.60;99.90;;;;;;4917201;29;20090;-83
2021/10/24 06:50:22;;;;;;;24.27;8.00;;;2.70;99.90;;;;;;4900040;28;20805;-83
2021/10/24 06:52:47;;;;;;;18.00;9.32;;;2.70;99.90;;;;;;4919273;28;20440;-84
2021/10/24 06:55:13;;;;;;;17.70;8.43;;;2.70;99.90;;;;;;4908184;28;20036;-83
2021/10/24 06:57:49;;;;;;;22.60;8.73;;;2.80;99.90;;;;;;4919402;28;20079;-83
2021/10/24 07:00:17;;;;;;;14.93;7.95;;;2.80;99.90;;;;;;4921387;29;20118;-83
2021/10/24 07:02:42;;;;;;;15.88;8.25;;;3.00;99.90;;;;;;4917766;29;20544;-83
2021/10/24 07:05:08;;;;;;;21.05;8.57;;;3.20;99.90;;;;;;4893787;28;20119;-83
2021/10/24 07:07:34;;;;;;;19.92;9.27;;;3.20;99.90;;;;;;4917588;28;20031;-82
2021/10/24 07:09:59;;;;;;;18.73;8.93;;;3.20;99.90;;;;;;4918192;29;20507;-82
2021/10/24 07:12:25;;;;;;;19.08;8.90;;;3.20;99.90;;;;;;4891954;29;20664;-82
2021/10/24 07:14:51;;;;;;;15.90;7.55;;;3.30;99.90;;;;;;4930891;28;20459;-83
2021/10/24 07:17:17;;;;;;;16.15;8.15;;;3.30;99.90;;;;;;4915020;28;20435;-83
2021/10/24 07:19:42;;;;;;;14.90;7.40;;;3.40;99.90;;;;;;4929173;28;20036;-83
2021/10/24 07:22:08;;;;;;;17.60;8.00;;;3.40;99.90;;;;;;4898902;29;20078;-83
2021/10/24 07:24:33;;;;;;;15.95;8.40;;;3.60;99.90;;;;;;4923326;28;20059;-83
2021/10/24 07:26:59;;;;;;;14.98;8.07;;;3.60;99.90;;;;;;4909164;28;20257;-83
2021/10/24 07:29:25;;;;;;;13.30;7.13;;;3.70;99.90;;;;;;4929921;28;20086;-83
2021/10/24 07:31:50;;;;;;;12.80;7.82;;;3.80;99.90;;;;;;4931904;29;20039;-83
2021/10/24 07:34:16;;;;;;;19.88;8.23;;;4.00;99.90;;;;;;4908403;29;20102;-84
2021/10/24 07:36:41;;;;;;;13.25;7.95;;;4.10;99.90;;;;;;4925170;28;20495;-83
2021/10/24 07:39:07;;;;;;;15.43;8.93;;;4.10;99.90;;;;;;4923415;29;20492;-83
2021/10/24 07:41:32;;;;;;;13.73;7.32;;;4.10;99.90;;;;;;4941415;28;20049;-84
2021/10/24 07:43:58;;;;;;;10.90;6.93;;;4.30;99.90;;;;;;4911722;28;20121;-82
2021/10/24 07:46:24;;;;;;;13.63;7.32;;;4.40;99.90;;;;;;4901314;28;20109;-83
2021/10/24 07:48:49;;;;;;;16.38;7.68;;;4.40;99.90;;;;;;4936262;29;20130;-83
2021/10/24 07:51:15;;;;;;;12.68;7.60;;;4.40;99.90;;;;;;4919323;29;20037;-83
2021/10/24 07:53:40;;;;;;;14.32;7.20;;;4.60;99.90;;;;;;4926193;28;20054;-82
2021/10/24 07:56:06;;;;;;;18.40;7.95;;;4.80;99.90;;;;;;4908286;29;20288;-82
2021/10/24 07:58:33;;;;;;;10.52;6.28;;;5.00;99.90;;;;;;4901540;28;20023;-83
2021/10/24 08:00:59;;;;;;;15.10;7.50;;;5.10;99.90;;;;;;4923245;28;20043;-83
2021/10/24 08:03:25;;;;;;;10.13;6.53;;;5.10;99.90;;;;;;4925872;28;20035;-82
2021/10/24 08:05:50;;;;;;;13.93;7.70;;;5.20;99.90;;;;;;4891927;29;20036;-84
2021/10/24 08:08:16;;;;;;;13.35;6.63;;;5.40;99.90;;;;;;4886863;29;20041;-84
2021/10/24 08:10:41;;;;;;;13.30;6.45;;;5.40;99.90;;;;;;4940285;28;20059;-84
2021/10/24 08:13:07;;;;;;;9.63;6.30;;;5.60;99.90;;;;;;4927265;28;20399;-84
2021/10/24 08:15:33;;;;;;;10.25;6.53;;;5.70;99.90;;;;;;4938303;28;20071;-84
2021/10/24 08:17:58;;;;;;;12.18;6.95;;;5.90;99.90;;;;;;4909358;28;20026;-84
2021/10/24 08:20:24;;;;;;;16.00;6.85;;;6.00;99.90;;;;;;4903290;28;20032;-84
2021/10/24 08:22:49;;;;;;;10.27;6.78;;;6.20;99.90;;;;;;4927007;28;20042;-83
2021/10/24 08:25:16;;;;;;;9.32;6.05;;;6.20;99.90;;;;;;4908046;28;20063;-83
2021/10/24 08:27:42;;;;;;;8.25;5.40;;;6.50;99.90;;;;;;4921506;28;20048;-84
2021/10/24 08:30:08;;;;;;;8.07;5.22;;;7.00;99.90;;;;;;4918269;28;20462;-84
2021/10/24 08:32:34;;;;;;;10.35;5.35;;;7.10;99.90;;;;;;4935810;28;20118;-84
2021/10/24 08:35:00;;;;;;;7.40;5.05;;;7.40;99.90;;;;;;4921000;29;20134;-84
2021/10/24 08:37:26;;;;;;;9.50;4.60;;;7.60;99.90;;;;;;4910103;28;20043;-84
2021/10/24 08:39:56;;;;;;;9.10;5.30;;;7.70;99.90;;;;;;4923054;28;20444;-84
2021/10/24 08:42:27;;;;;;;5.68;3.63;;;7.80;99.90;;;;;;4915459;28;20039;-84
2021/10/24 08:44:56;;;;;;;6.95;3.58;;;8.10;99.90;;;;;;4922777;28;20114;-83
2021/10/24 08:47:23;;;;;;;9.27;4.18;;;8.60;99.90;;;;;;4921771;28;20152;-83
2021/10/24 08:49:49;;;;;;;8.98;3.88;;;8.70;99.90;;;;;;4926640;28;20027;-83
2021/10/24 08:52:15;;;;;;;6.88;3.50;;;8.80;99.90;;;;;;4904221;29;20086;-83
2021/10/24 08:54:42;;;;;;;10.43;3.15;;;9.20;99.90;;;;;;4924170;28;20487;-84
2021/10/24 08:57:08;;;;;;;5.72;2.90;;;9.50;99.90;;;;;;4918223;29;20031;-83
2021/10/24 08:59:33;;;;;;;9.20;3.70;;;9.80;99.90;;;;;;4942784;28;20440;-83
2021/10/24 09:01:59;;;;;;;6.95;2.88;;;9.70;99.90;;;;;;4907302;29;20032;-83
2021/10/24 09:04:24;;;;;;;7.25;2.55;;;10.30;99.90;;;;;;4903654;29;20035;-83
2021/10/24 09:06:53;;;;;;;8.15;2.08;;;10.30;99.50;;;;;;4922881;28;20027;-83
2021/10/24 09:09:21;;;;;;;6.57;2.22;;;10.20;99.50;;;;;;4933461;28;20086;-83
2021/10/24 09:12:04;;;;;;;6.22;2.35;;;10.00;99.90;;;;;;4937182;28;20086;-83
2021/10/24 09:14:49;;;;;;;5.78;2.30;;;10.60;99.90;;;;;;4926363;28;20039;-83
2021/10/24 09:17:22;;;;;;;6.40;2.20;;;10.60;99.30;;;;;;4919683;29;20130;-83
2021/10/24 09:19:53;;;;;;;5.40;2.00;;;10.50;99.90;;;;;;4946838;28;20491;-83
2021/10/24 09:22:25;;;;;;;4.82;1.98;;;10.70;99.80;;;;;;4927899;28;20589;-83
2021/10/24 09:25:12;;;;;;;3.60;1.85;;;11.20;99.10;;;;;;4938073;28;20035;-83
2021/10/24 09:27:42;;;;;;;3.80;2.20;;;11.50;99.10;;;;;;4931259;28;20104;-83
2021/10/24 09:30:11;;;;;;;4.55;2.08;;;11.50;99.50;;;;;;4934123;28;20110;-83
2021/10/24 09:32:55;;;;;;;5.00;2.08;;;11.80;97.90;;;;;;4933921;28;20441;-84
2021/10/24 09:35:23;;;;;;;5.82;2.33;;;11.80;97.60;;;;;;4918638;28;20031;-83
2021/10/24 09:37:49;;;;;;;3.60;1.70;;;11.50;98.10;;;;;;4899874;29;20027;-83
2021/10/24 09:40:16;;;;;;;4.47;1.80;;;12.10;96.70;;;;;;4887151;29;20135;-83
2021/10/24 09:42:41;;;;;;;8.13;2.25;;;12.00;96.50;;;;;;4913369;28;20035;-84
2021/10/24 09:45:09;;;;;;;7.07;2.10;;;12.20;96.10;;;;;;4916332;28;20516;-83
2021/10/24 09:47:42;;;;;;;8.50;2.25;;;12.50;95.30;;;;;;4928269;28;20500;-83
2021/10/24 09:50:27;;;;;;;7.65;2.20;;;12.40;95.10;;;;;;4934653;28;20131;-83
2021/10/24 09:52:55;;;;;;;4.37;2.07;;;12.30;95.90;;;;;;4953433;28;20491;-83
2021/10/24 09:55:20;;;;;;;7.30;1.98;;;12.50;94.20;;;;;;4913520;28;20787;-83
2021/10/24 09:57:46;;;;;;;6.78;2.00;;;13.10;93.80;;;;;;4934642;29;20031;-83
2021/10/24 10:00:12;;;;;;;6.45;2.10;;;12.90;94.50;;;;;;4902099;28;20103;-82
2021/10/24 10:02:38;;;;;;;5.47;2.47;;;12.90;93.80;;;;;;4932521;28;20031;-83
2021/10/24 10:05:04;;;;;;;4.72;2.03;;;12.80;93.10;;;;;;4925418;28;20094;-83
2021/10/24 10:07:29;;;;;;;3.17;1.92;;;12.70;94.20;;;;;;4916349;29;20043;-83
2021/10/24 10:09:56;;;;;;;6.90;2.20;;;12.70;95.20;;;;;;4925326;28;20030;-83
2021/10/24 10:12:21;;;;;;;3.50;2.15;;;13.10;93.90;;;;;;4912913;29;20031;-83
2021/10/24 10:14:47;;;;;;;3.40;1.90;;;12.80;95.80;;;;;;4927072;28;20442;-83
2021/10/24 10:17:19;;;;;;;6.57;1.90;;;13.50;94.30;;;;;;4931242;29;20035;-84
2021/10/24 10:19:47;;;;;;;6.53;2.35;;;13.50;94.80;;;;;;4941081;28;20054;-84
2021/10/24 10:22:21;;;;;;;6.28;1.60;;;13.80;94.50;;;;;;4920373;28;20090;-83
2021/10/24 10:24:52;;;;;;;3.63;1.70;;;13.80;94.20;;;;;;4949338;28;20028;-83
2021/10/24 10:27:27;;;;;;;4.88;2.80;;;13.90;93.20;;;;;;4938974;28;20387;-84
2021/10/24 10:29:54;;;;;;;3.53;1.67;;;14.30;92.40;;;;;;4950512;28;20425;-84
2021/10/24 10:32:24;;;;;;;5.65;2.22;;;13.90;93.20;;;;;;4915245;29;20059;-83
2021/10/24 10:34:59;;;;;;;6.70;1.95;;;13.90;94.10;;;;;;4916612;29;20075;-84
2021/10/24 10:37:46;;;;;;;3.83;1.60;;;14.50;92.40;;;;;;4953061;28;20042;-83
2021/10/24 10:40:32;;;;;;;3.72;1.60;;;14.80;91.60;;;;;;4945891;28;20035;-84
2021/10/24 10:43:16;;;;;;;;;;;14.90;92.10;;;;;;4914781;29;20127;-83
2021/10/24 10:45:44;;;;;;;2.95;1.80;;;14.70;91.80;;;;;;4913048;28;19958;-84
2021/10/24 10:48:49;;;;;;;3.33;1.77;;;15.00;91.70;;;;;;4909761;28;20043;-83
2021/10/24 10:51:16;;;;;;;6.50;1.83;;;15.40;91.40;;;;;;4936947;28;20047;-84
2021/10/24 10:53:44;;;;;;;1.40;0.98;;;15.20;90.90;;;;;;4921348;29;20071;-83
2021/10/24 10:56:13;;;;;;;5.13;1.65;;;15.30;89.00;;;;;;4932537;28;20066;-83
2021/10/24 10:58:43;;;;;;;2.45;1.98;;;15.90;88.60;;;;;;4958553;28;20035;-83
2021/10/24 11:01:27;;;;;;;3.13;1.73;;;15.60;89.40;;;;;;4231465;28;10000407;-84
2021/10/24 11:03:56;;;;;;;5.25;2.03;;;15.10;91.10;;;;;;4951148;28;20117;-84
2021/10/24 11:06:24;;;;;;;4.43;1.80;;;15.90;91.30;;;;;;4929176;28;20043;-85
2021/10/24 11:08:50;;;;;;;3.88;1.60;;;15.70;90.90;;;;;;4933387;29;20508;-84
2021/10/24 11:11:41;;;;;;;3.35;1.67;;;15.50;90.80;;;;;;4907775;29;20055;-84
2021/10/24 11:14:15;;;;;;;3.53;1.30;;;16.50;88.10;;;;;;4952332;28;20031;-85
2021/10/24 11:16:45;;;;;;;2.75;1.17;;;16.60;89.20;;;;;;4946294;28;20765;-84
2021/10/24 11:19:28;;;;;;;2.47;1.80;;;16.70;89.50;;;;;;4922509;28;20093;-84
2021/10/24 11:22:00;;;;;;;2.72;1.30;;;16.30;89.70;;;;;;4924798;29;20051;-84
2021/10/24 11:24:47;;;;;;;3.42;1.50;;;16.50;88.00;;;;;;4922197;28;20031;-84
2021/10/24 11:27:19;;;;;;;2.03;1.40;;;17.00;83.80;;;;;;4928054;28;20039;-84
2021/10/24 11:29:52;;;;;;;2.78;1.23;;;17.00;88.10;;;;;;4916802;28;20624;-84
2021/10/24 11:32:30;;;;;;;1.83;1.25;;;16.90;88.10;;;;;;4916491;29;20036;-84
2021/10/24 11:34:57;;;;;;;4.35;1.25;;;17.20;87.10;;;;;;4932607;28;20031;-84
2021/10/24 11:37:41;;;;;;;2.97;1.52;;;17.00;88.60;;;;;;4899086;28;20039;-84
2021/10/24 11:40:17;;;;;;;3.45;1.30;;;17.00;88.40;;;;;;4933103;28;20094;-84
2021/10/24 11:42:59;;;;;;;;;;;16.90;86.10;;;;;;4930031;28;20539;-84
2021/10/24 11:45:25;;;;;;;1.77;1.33;;;17.00;85.30;;;;;;4921619;28;19942;-85
2021/10/24 11:48:08;;;;;;;6.53;1.90;;;17.40;85.10;;;;;;4923343;28;20031;-85
2021/10/24 11:50:39;;;;;;;3.75;1.33;;;17.60;83.30;;;;;;4920440;29;20047;-85
2021/10/24 11:53:06;;;;;;;3.22;1.30;;;17.60;84.20;;;;;;4920956;29;20495;-85
2021/10/24 11:55:33;;;;;;;4.13;1.63;;;17.50;84.20;;;;;;4900853;29;20027;-85
2021/10/24 12:00:49;;;;;;;3.83;1.50;;;17.70;83.80;;;;;;4921174;28;20302;-84
2021/10/24 12:03:28;;;;;;;3.08;1.38;;;17.90;82.70;;;;;;4931188;28;20050;-85
2021/10/24 12:05:54;;;;;;;1.88;1.00;;;18.10;81.80;;;;;;4920801;29;20663;-85
2021/10/24 12:08:52;;;;;;;2.20;1.08;;;17.90;83.90;;;;;;4922673;28;20046;-85
2021/10/24 12:11:43;;;;;;;1.80;1.48;;;17.70;84.80;;;;;;4926740;28;20070;-85
2021/10/24 12:14:14;;;;;;;3.33;1.60;;;18.00;85.70;;;;;;4907974;28;20514;-85
2021/10/24 12:16:45;;;;;;;4.85;1.63;;;18.30;82.00;;;;;;4910876;29;20044;-85
2021/10/24 12:19:20;;;;;;;2.08;1.17;;;18.10;84.90;;;;;;4903487;28;20038;-85
2021/10/24 12:22:05;;;;;;;1.23;0.90;;;18.40;79.40;;;;;;4917181;29;20131;-85
2021/10/24 12:24:48;;;;;;;4.22;1.50;;;18.50;83.10;;;;;;4928496;28;20046;-85
2021/10/24 12:27:24;;;;;;;2.92;1.13;;;18.70;83.60;;;;;;4917455;29;20027;-85
2021/10/24 12:29:57;;;;;;;5.25;1.50;;;18.90;85.00;;;;;;4926011;28;20090;-85
2021/10/24 12:32:23;;;;;;;5.00;1.42;;;18.90;81.10;;;;;;4944075;28;20399;-84
2021/10/24 12:34:59;;;;;;;2.47;1.02;;;18.80;78.10;;;;;;4922022;28;20027;-85
2021/10/24 12:37:25;;;;;;;;;;;19.10;80.40;;;;;;4908187;28;20098;-85
2021/10/24 12:40:18;;;;;;;3.15;1.38;;;19.30;78.60;;;;;;4944915;28;19910;-85
2021/10/24 12:43:03;;;;;;;3.58;1.55;;;19.40;80.40;;;;;;4933755;28;20031;-84
2021/10/24 12:45:29;;;;;;;2.75;1.67;;;19.50;76.60;;;;;;4917784;29;20031;-85
2021/10/24 12:47:58;;;;;;;4.10;1.73;;;19.80;77.60;;;;;;4932565;28;20050;-85
2021/10/24 12:50:31;;;;;;;3.95;1.83;;;19.60;75.10;;;;;;4896704;28;20102;-86
2021/10/24 12:53:04;;;;;;;4.05;1.55;;;19.90;74.80;;;;;;4925832;28;20106;-86
2021/10/24 12:55:30;;;;;;;4.95;1.55;;;19.60;76.40;;;;;;4906611;28;20042;-85